Terminal Aerodrome Forecast
Issued by NWS

Home | Current Version | Previous Version | Text Only | Print | Product List | Glossary On
Versions: 1 2 3 4 5 6 7 8 9 10 11 12 13 14 15 16 17 18
804
FTUS46 KSEW 291734
TAFPAE
TAF
KPAE 291734Z 2918/3018 VRB04KT P6SM SCT040 SCT120
     FM301200 18006KT P6SM BKN012
     FM301700 VRB04KT P6SM SCT030 BKN120=

USA.gov is the U.S. government's official web portal to all federal, state and local government web resources and services.